createdAt,value
2023-03-02T00:01:08.447Z,11.60
2023-03-02T00:03:42.445Z,11.75
2023-03-02T00:06:17.205Z,12.95
2023-03-02T00:08:50.081Z,11.23
2023-03-02T00:11:22.976Z,11.35
2023-03-02T00:16:28.246Z,13.07
2023-03-02T00:19:01.153Z,12.10
2023-03-02T00:24:08.894Z,12.70
2023-03-02T00:26:41.636Z,15.73
2023-03-02T00:29:14.347Z,16.40
2023-03-02T00:31:47.233Z,16.48
2023-03-02T00:34:21.194Z,18.40
2023-03-02T00:36:55.407Z,17.98
2023-03-02T00:39:28.164Z,19.10
2023-03-02T00:42:00.997Z,20.50
2023-03-02T00:44:34.193Z,19.38
2023-03-02T00:47:07.298Z,21.38
2023-03-02T00:52:14.059Z,22.50
2023-03-02T00:54:46.857Z,22.15
2023-03-02T00:57:20.392Z,22.58
2023-03-02T00:59:53.220Z,24.35
2023-03-02T01:02:30.835Z,26.30
2023-03-02T01:05:03.752Z,25.45
2023-03-02T01:07:38.027Z,25.70
2023-03-02T01:10:12.266Z,26.55
2023-03-02T01:12:45.143Z,26.92
2023-03-02T01:17:50.674Z,27.17
2023-03-02T01:22:57.578Z,27.55
2023-03-02T01:25:30.304Z,29.05
2023-03-02T01:28:03.052Z,29.02
2023-03-02T01:30:35.921Z,28.75
2023-03-02T01:33:09.300Z,28.77
2023-03-02T01:35:42.037Z,29.70
2023-03-02T01:38:16.505Z,30.75
2023-03-02T01:40:49.331Z,31.73
2023-03-02T01:43:22.236Z,32.67
2023-03-02T01:45:57.152Z,30.02
2023-03-02T01:48:55.564Z,31.33
2023-03-02T01:51:48.857Z,31.10
2023-03-02T01:54:24.428Z,30.42
2023-03-02T01:57:05.250Z,30.17
2023-03-02T01:59:42.521Z,29.25
2023-03-02T02:02:15.287Z,31.48
2023-03-02T02:04:50.236Z,29.85
2023-03-02T02:07:22.971Z,31.98
2023-03-02T02:12:31.729Z,30.52
2023-03-02T02:15:05.860Z,31.55
2023-03-02T02:17:38.858Z,30.13
2023-03-02T02:20:24.124Z,30.00
2023-03-02T02:23:07.067Z,30.75
2023-03-02T02:25:49.167Z,31.13
2023-03-02T02:28:29.018Z,29.10
2023-03-02T02:31:08.189Z,29.23
2023-03-02T02:33:43.098Z,30.73
2023-03-02T02:36:20.092Z,29.17
2023-03-02T02:38:56.687Z,31.52
2023-03-02T02:41:33.941Z,30.35
2023-03-02T02:44:11.003Z,27.63
2023-03-02T02:46:44.783Z,32.47
2023-03-02T02:49:31.190Z,28.90
2023-03-02T02:52:06.370Z,28.02
2023-03-02T02:54:39.934Z,29.33
2023-03-02T02:57:17.783Z,29.75
2023-03-02T02:59:54.457Z,28.13
2023-03-02T03:02:29.986Z,28.38
2023-03-02T03:05:03.829Z,29.00
2023-03-02T03:07:39.837Z,29.00
2023-03-02T03:10:19.256Z,29.63
2023-03-02T03:12:52.874Z,27.00
2023-03-02T03:15:28.525Z,29.13
2023-03-02T03:18:01.314Z,30.65
2023-03-02T03:20:34.383Z,29.30
2023-03-02T03:25:41.776Z,29.25
2023-03-02T03:28:15.643Z,29.65
2023-03-02T03:30:50.058Z,29.27
2023-03-02T03:33:23.112Z,29.70
2023-03-02T03:38:29.268Z,28.45
2023-03-02T03:41:02.187Z,28.83
2023-03-02T03:43:35.560Z,28.70
2023-03-02T03:46:11.022Z,28.10
2023-03-02T03:48:43.854Z,28.40
2023-03-02T03:51:17.752Z,27.90
2023-03-02T03:53:59.850Z,30.08
2023-03-02T03:56:39.303Z,27.20
2023-03-02T03:59:15.068Z,29.15
2023-03-02T04:01:56.852Z,28.30
2023-03-02T04:04:34.329Z,30.25
2023-03-02T04:07:11.276Z,30.10
2023-03-02T04:09:44.758Z,28.55
2023-03-02T04:12:19.409Z,30.45
2023-03-02T04:14:56.611Z,31.63
2023-03-02T04:17:31.165Z,27.98
2023-03-02T04:20:07.684Z,28.13
2023-03-02T04:22:40.931Z,28.65
2023-03-02T04:25:15.273Z,30.17
2023-03-02T04:27:50.117Z,29.65
2023-03-02T04:30:26.044Z,29.33
2023-03-02T04:33:00.828Z,29.58
2023-03-02T04:35:35.141Z,27.63
2023-03-02T04:38:09.175Z,28.42
2023-03-02T04:40:42.234Z,29.48
2023-03-02T04:43:15.063Z,28.50
2023-03-02T04:45:48.144Z,26.77
2023-03-02T04:48:22.939Z,27.10
2023-03-02T04:50:55.738Z,28.25
2023-03-02T04:53:28.418Z,27.88
2023-03-02T04:56:01.286Z,27.45
2023-03-02T05:01:07.380Z,27.73
2023-03-02T05:03:41.543Z,29.33
2023-03-02T05:06:14.640Z,27.20
2023-03-02T05:08:47.269Z,28.98
2023-03-02T05:11:26.085Z,27.55
2023-03-02T05:14:00.943Z,29.05
2023-03-02T05:16:37.130Z,26.50
2023-03-02T05:19:13.417Z,26.77
2023-03-02T05:21:46.583Z,27.30
2023-03-02T05:24:19.367Z,27.80
2023-03-02T05:26:52.035Z,27.23
2023-03-02T05:29:24.714Z,27.15
2023-03-02T05:31:57.591Z,27.27
2023-03-02T05:34:31.705Z,27.80
2023-03-02T05:37:04.444Z,25.92
2023-03-02T05:39:37.233Z,28.08
2023-03-02T05:44:43.186Z,25.02
2023-03-02T05:47:15.918Z,27.30
2023-03-02T05:49:49.968Z,27.80
2023-03-02T05:52:22.716Z,26.25
2023-03-02T05:54:56.277Z,26.92
2023-03-02T05:57:30.357Z,25.90
2023-03-02T06:00:04.782Z,27.02
2023-03-02T06:02:45.252Z,26.52
2023-03-02T06:05:21.741Z,26.10
2023-03-02T06:07:54.805Z,28.00
2023-03-02T06:10:27.949Z,26.33
2023-03-02T06:13:00.944Z,26.67
2023-03-02T06:18:06.196Z,25.52
2023-03-02T06:20:40.901Z,25.80
2023-03-02T06:23:14.089Z,26.80
2023-03-02T06:25:48.794Z,26.25
2023-03-02T06:28:22.012Z,25.13
2023-03-02T06:30:54.781Z,23.45
2023-03-02T06:33:27.571Z,24.45
2023-03-02T06:36:01.865Z,25.83
2023-03-02T06:38:35.000Z,23.73
2023-03-02T06:41:07.749Z,24.92
2023-03-02T06:43:40.780Z,26.15
2023-03-02T06:46:14.317Z,24.52
2023-03-02T06:48:47.077Z,24.80
2023-03-02T06:51:21.121Z,25.58
2023-03-02T06:53:53.893Z,24.70
2023-03-02T06:56:26.633Z,23.52
2023-03-02T06:58:59.597Z,21.58
2023-03-02T07:04:08.584Z,22.85
2023-03-02T07:06:42.697Z,23.85
2023-03-02T07:09:15.902Z,23.05
2023-03-02T07:11:48.607Z,23.90
2023-03-02T07:14:21.423Z,23.70
2023-03-02T07:16:56.636Z,23.65
2023-03-02T07:19:29.383Z,23.15
2023-03-02T07:22:03.671Z,24.38
2023-03-02T07:24:36.343Z,24.52
2023-03-02T07:27:09.099Z,22.27
2023-03-02T07:29:41.902Z,23.67
2023-03-02T07:32:14.732Z,24.50
2023-03-02T07:37:21.368Z,22.77
2023-03-02T07:39:55.260Z,25.42
2023-03-02T07:42:27.950Z,24.38
2023-03-02T07:45:04.420Z,23.10
2023-03-02T07:47:37.072Z,25.23
2023-03-02T07:50:11.279Z,23.83
2023-03-02T07:52:45.458Z,22.25
2023-03-02T07:55:18.346Z,22.63
2023-03-02T08:00:24.225Z,23.58
2023-03-02T08:02:57.104Z,26.33
2023-03-02T08:08:03.890Z,18.95
2023-03-02T08:10:37.368Z,23.90
2023-03-02T08:13:10.244Z,25.60
2023-03-02T08:15:43.037Z,24.02
2023-03-02T08:20:48.304Z,17.80
2023-03-02T08:25:57.290Z,22.48
2023-03-02T08:28:30.066Z,25.33
2023-03-02T08:31:04.507Z,24.13
2023-03-02T08:33:37.286Z,22.13
2023-03-02T08:36:13.905Z,22.65
2023-03-02T08:38:48.672Z,22.80
2023-03-02T08:41:23.479Z,24.10
2023-03-02T08:43:57.160Z,24.95
2023-03-02T08:46:30.605Z,24.27
2023-03-02T08:49:03.502Z,24.27
2023-03-02T08:54:11.058Z,22.30
2023-03-02T08:56:44.535Z,24.23
2023-03-02T08:59:18.363Z,23.70
2023-03-02T09:01:51.053Z,21.73
2023-03-02T09:04:23.838Z,22.58
2023-03-02T09:09:30.817Z,22.13
2023-03-02T09:12:03.549Z,22.20
2023-03-02T09:14:36.256Z,23.08
2023-03-02T09:17:09.164Z,24.10
2023-03-02T09:19:44.509Z,23.67
2023-03-02T09:22:17.624Z,22.70
2023-03-02T09:27:24.533Z,22.15
2023-03-02T09:29:57.579Z,23.15
2023-03-02T09:32:30.669Z,22.17
2023-03-02T09:35:03.645Z,22.63
2023-03-02T09:37:38.964Z,22.15
2023-03-02T09:40:19.988Z,22.23
2023-03-02T09:43:12.657Z,22.52
2023-03-02T09:45:58.509Z,22.42
2023-03-02T09:48:39.677Z,23.20
2023-03-02T09:51:25.091Z,22.02
2023-03-02T09:54:04.517Z,22.30
2023-03-02T09:56:43.875Z,20.48
2023-03-02T09:59:24.181Z,20.45
2023-03-02T10:02:02.182Z,20.45
2023-03-02T10:04:42.204Z,21.83
2023-03-02T10:07:17.314Z,19.88
2023-03-02T10:09:50.400Z,20.90
2023-03-02T10:15:15.734Z,21.88
2023-03-02T10:17:59.583Z,20.15
2023-03-02T10:20:37.939Z,19.95
2023-03-02T10:23:28.831Z,20.52
2023-03-02T10:26:10.950Z,18.05
2023-03-02T10:28:50.344Z,19.95
2023-03-02T10:31:28.486Z,18.77
2023-03-02T10:34:01.923Z,20.20
2023-03-02T10:36:39.289Z,20.88
2023-03-02T10:39:15.156Z,18.48
2023-03-02T10:41:53.088Z,18.75
2023-03-02T10:44:32.579Z,18.95
2023-03-02T10:47:07.480Z,18.10
2023-03-02T10:49:43.557Z,18.77
2023-03-02T10:52:17.786Z,18.80
2023-03-02T10:54:52.668Z,18.48
2023-03-02T10:57:31.205Z,17.58
2023-03-02T11:00:17.419Z,17.75
2023-03-02T11:02:51.980Z,16.20
2023-03-02T11:05:29.735Z,17.23
2023-03-02T11:08:04.838Z,18.42
2023-03-02T11:10:39.445Z,16.20
2023-03-02T11:13:19.384Z,17.45
2023-03-02T11:15:55.910Z,17.10
2023-03-02T11:18:34.579Z,17.95
2023-03-02T11:21:11.739Z,17.42
2023-03-02T11:23:57.221Z,17.90
2023-03-02T11:26:35.508Z,16.95
2023-03-02T11:29:15.652Z,16.77
2023-03-02T11:31:53.467Z,16.10
2023-03-02T11:34:33.877Z,17.67
2023-03-02T11:37:16.505Z,15.55
2023-03-02T11:40:05.136Z,15.38
2023-03-02T11:42:41.407Z,15.98
2023-03-02T11:45:21.929Z,15.38
2023-03-02T11:48:03.493Z,15.68
2023-03-02T11:50:46.900Z,15.70
2023-03-02T11:53:22.060Z,15.02
2023-03-02T11:55:54.897Z,14.65
2023-03-02T11:58:30.694Z,16.17
2023-03-02T12:01:04.742Z,16.05
2023-03-02T12:03:41.890Z,15.35
2023-03-02T12:06:30.578Z,16.73
2023-03-02T12:09:26.528Z,15.77
2023-03-02T12:12:01.799Z,16.27
2023-03-02T12:14:39.073Z,17.45
2023-03-02T12:17:33.084Z,17.45
2023-03-02T12:20:26.912Z,17.83
2023-03-02T12:23:22.378Z,18.40
2023-03-02T12:26:08.752Z,15.60
2023-03-02T12:28:41.949Z,16.50
2023-03-02T12:31:14.732Z,16.40
2023-03-02T12:33:49.140Z,18.38
2023-03-02T12:36:30.505Z,18.75
2023-03-02T12:39:21.957Z,17.17
2023-03-02T12:42:10.403Z,17.67
2023-03-02T12:44:53.077Z,17.88
2023-03-02T12:47:30.029Z,18.15
2023-03-02T12:50:06.528Z,17.67
2023-03-02T12:52:40.736Z,16.50
2023-03-02T12:55:19.108Z,17.83
2023-03-02T12:57:54.607Z,18.30
2023-03-02T13:00:30.208Z,16.15
2023-03-02T13:03:03.377Z,17.30
2023-03-02T13:05:37.668Z,18.30
2023-03-02T13:08:18.531Z,16.70
2023-03-02T13:10:53.219Z,17.50
2023-03-02T13:13:28.261Z,16.80
2023-03-02T13:16:02.921Z,17.23
2023-03-02T13:18:39.639Z,16.02
2023-03-02T13:21:15.853Z,16.83
2023-03-02T13:23:51.759Z,17.40
2023-03-02T13:26:30.058Z,18.08
2023-03-02T13:29:05.407Z,17.45
2023-03-02T13:31:38.474Z,17.42
2023-03-02T13:34:21.829Z,17.65
2023-03-02T13:36:55.624Z,18.70
2023-03-02T13:39:31.541Z,19.10
2023-03-02T13:42:04.840Z,17.52
2023-03-02T13:44:37.536Z,17.92
2023-03-02T13:47:23.102Z,17.52
2023-03-02T13:49:55.852Z,17.90
2023-03-02T13:52:31.317Z,17.08
2023-03-02T13:55:05.960Z,16.73
2023-03-02T13:57:38.751Z,17.55
2023-03-02T14:00:14.904Z,16.75
2023-03-02T14:02:48.715Z,15.73
2023-03-02T14:05:23.832Z,16.98
2023-03-02T14:07:56.686Z,15.18
2023-03-02T14:10:30.838Z,16.33
2023-03-02T14:13:07.265Z,14.95
2023-03-02T14:15:43.790Z,15.35
2023-03-02T14:18:29.469Z,17.08
2023-03-02T14:21:02.407Z,16.27
2023-03-02T14:26:21.927Z,16.50
2023-03-02T14:29:04.924Z,16.77
2023-03-02T14:31:38.429Z,14.75
2023-03-02T14:34:13.963Z,15.20
2023-03-02T14:36:50.612Z,14.23
2023-03-02T14:39:28.339Z,15.95
2023-03-02T14:42:02.450Z,16.50
2023-03-02T14:44:35.422Z,16.00
2023-03-02T14:47:10.019Z,15.65
2023-03-02T14:49:42.952Z,14.48
2023-03-02T14:54:54.035Z,16.42
2023-03-02T14:57:30.306Z,16.63
2023-03-02T15:00:03.118Z,15.25
2023-03-02T15:02:36.114Z,14.82
2023-03-02T15:07:41.991Z,15.57
2023-03-02T15:10:17.275Z,15.50
2023-03-02T15:12:52.031Z,17.02
2023-03-02T15:15:26.248Z,15.02
2023-03-02T15:17:59.102Z,15.00
2023-03-02T15:20:32.157Z,15.10
2023-03-02T15:25:37.675Z,14.55
2023-03-02T15:28:11.753Z,15.38
2023-03-02T15:30:44.480Z,16.73
2023-03-02T15:33:17.496Z,14.73
2023-03-02T15:38:28.221Z,15.38
2023-03-02T15:41:05.114Z,16.77
2023-03-02T15:43:39.474Z,17.33
2023-03-02T15:46:12.412Z,15.32
2023-03-02T15:51:17.790Z,16.87
2023-03-02T15:53:50.488Z,16.25
2023-03-02T15:56:26.508Z,16.95
2023-03-02T15:59:02.501Z,17.17
2023-03-02T16:01:35.309Z,16.70
2023-03-02T16:04:08.187Z,16.88
2023-03-02T16:09:13.749Z,15.35
2023-03-02T16:11:46.462Z,15.57
2023-03-02T16:14:20.517Z,15.45
2023-03-02T16:16:53.505Z,16.48
2023-03-02T16:19:26.688Z,15.68
2023-03-02T16:21:59.434Z,17.90
2023-03-02T16:24:32.402Z,15.10
2023-03-02T16:29:39.254Z,15.65
2023-03-02T16:32:12.229Z,14.68
2023-03-02T16:37:18.174Z,15.60
2023-03-02T16:39:50.984Z,15.30
2023-03-02T16:42:23.786Z,15.02
2023-03-02T16:44:58.775Z,13.90
2023-03-02T16:47:31.726Z,15.55
2023-03-02T16:50:04.725Z,14.13
2023-03-02T16:52:37.737Z,15.35
2023-03-02T16:57:45.952Z,14.40
2023-03-02T17:00:22.081Z,14.05
2023-03-02T17:02:55.237Z,14.38
2023-03-02T17:05:27.897Z,16.30
2023-03-02T17:08:02.872Z,17.55
2023-03-02T17:10:35.598Z,17.35
2023-03-02T17:13:09.446Z,17.40
2023-03-02T17:15:44.021Z,15.55
2023-03-02T17:18:17.241Z,18.92
2023-03-02T17:20:52.206Z,18.13
2023-03-02T17:23:27.069Z,18.45
2023-03-02T17:25:59.896Z,17.10
2023-03-02T17:28:32.694Z,17.83
2023-03-02T17:31:07.158Z,17.52
2023-03-02T17:33:40.017Z,16.80
2023-03-02T17:38:48.398Z,19.30
2023-03-02T17:41:21.249Z,19.10
2023-03-02T17:43:53.989Z,19.02
2023-03-02T17:46:29.890Z,17.92
2023-03-02T17:49:03.109Z,18.90
2023-03-02T17:51:36.131Z,20.27
2023-03-02T17:54:08.936Z,18.48
2023-03-02T17:56:41.952Z,18.27
2023-03-02T18:01:49.368Z,18.52
2023-03-02T18:04:22.201Z,18.17
2023-03-02T18:06:55.517Z,19.65
2023-03-02T18:09:28.214Z,18.50
2023-03-02T18:12:02.491Z,18.52
2023-03-02T18:14:36.592Z,17.58
2023-03-02T18:17:10.819Z,16.45
2023-03-02T18:19:43.515Z,18.40
2023-03-02T18:22:16.298Z,16.67
2023-03-02T18:24:50.513Z,15.90
2023-03-02T18:27:23.284Z,17.48
2023-03-02T18:29:56.110Z,16.25
2023-03-02T18:32:30.181Z,16.48
2023-03-02T18:35:02.897Z,18.60
2023-03-02T18:37:35.902Z,18.15
2023-03-02T18:40:11.177Z,17.45
2023-03-02T18:42:43.889Z,17.33
2023-03-02T18:45:23.405Z,18.10
2023-03-02T18:47:58.990Z,17.08
2023-03-02T18:50:31.853Z,17.95
2023-03-02T18:53:04.535Z,17.27
2023-03-02T18:55:38.459Z,18.02
2023-03-02T18:58:19.040Z,17.77
2023-03-02T19:00:54.262Z,18.65
2023-03-02T19:03:28.812Z,16.83
2023-03-02T19:06:02.338Z,18.05
2023-03-02T19:08:35.746Z,19.17
2023-03-02T19:11:09.020Z,19.00
2023-03-02T19:13:41.986Z,17.33
2023-03-02T19:18:50.015Z,17.83
2023-03-02T19:21:22.806Z,18.83
2023-03-02T19:23:55.693Z,17.13
2023-03-02T19:26:28.462Z,19.90
2023-03-02T19:29:01.344Z,19.52
2023-03-02T19:34:08.142Z,18.42
2023-03-02T19:36:40.944Z,16.98
2023-03-02T19:39:13.949Z,19.15
2023-03-02T19:44:19.673Z,18.20
2023-03-02T19:46:53.060Z,19.63
2023-03-02T19:49:27.300Z,17.10
2023-03-02T19:52:00.879Z,16.98
2023-03-02T19:54:33.578Z,17.23
2023-03-02T19:57:07.831Z,17.13
2023-03-02T19:59:41.071Z,18.23
2023-03-02T20:02:15.194Z,17.95
2023-03-02T20:04:50.900Z,17.20
2023-03-02T20:07:23.940Z,16.52
2023-03-02T20:12:29.570Z,14.57
2023-03-02T20:17:35.718Z,15.02
2023-03-02T20:20:12.040Z,15.15
2023-03-02T20:22:45.443Z,14.35
2023-03-02T20:25:19.797Z,14.88
2023-03-02T20:27:53.147Z,14.07
2023-03-02T20:30:29.957Z,17.08
2023-03-02T20:33:03.203Z,14.40
2023-03-02T20:35:41.125Z,14.70
2023-03-02T20:38:18.461Z,15.20
2023-03-02T20:40:51.509Z,15.57
2023-03-02T20:45:57.398Z,14.10
2023-03-02T20:51:04.763Z,13.50
2023-03-02T20:53:37.619Z,13.98
2023-03-02T20:56:12.791Z,12.20
2023-03-02T20:58:47.096Z,13.55
2023-03-02T21:01:23.664Z,13.40
2023-03-02T21:03:57.060Z,12.40
2023-03-02T21:06:33.421Z,13.23
2023-03-02T21:09:09.487Z,13.18
2023-03-02T21:11:42.426Z,13.48
2023-03-02T21:16:48.517Z,13.48
2023-03-02T21:19:21.604Z,14.75
2023-03-02T21:21:56.640Z,13.63
2023-03-02T21:24:29.855Z,13.32
2023-03-02T21:27:02.849Z,12.80
2023-03-02T21:32:08.227Z,13.33
2023-03-02T21:34:40.981Z,13.02
2023-03-02T21:37:15.061Z,13.95
2023-03-02T21:39:48.477Z,12.77
2023-03-02T21:42:21.657Z,13.48
2023-03-02T21:44:55.487Z,13.85
2023-03-02T21:47:28.298Z,13.43
2023-03-02T21:50:01.008Z,12.65
2023-03-02T21:52:35.419Z,12.40
2023-03-02T21:55:09.524Z,12.63
2023-03-02T21:57:42.877Z,13.75
2023-03-02T22:00:22.168Z,12.32
2023-03-02T22:02:55.789Z,12.20
2023-03-02T22:05:29.185Z,12.60
2023-03-02T22:08:03.210Z,11.80
2023-03-02T22:10:40.752Z,11.50
2023-03-02T22:13:20.482Z,12.25
2023-03-02T22:15:59.102Z,13.23
2023-03-02T22:18:32.787Z,12.27
2023-03-02T22:21:24.076Z,12.07
2023-03-02T22:24:14.952Z,11.98
2023-03-02T22:26:50.800Z,12.10
2023-03-02T22:29:26.290Z,10.57
2023-03-02T22:32:13.862Z,11.60
2023-03-02T22:34:48.085Z,11.90
2023-03-02T22:37:23.333Z,11.27
2023-03-02T22:39:59.119Z,11.48
2023-03-02T22:42:32.176Z,10.77
2023-03-02T22:45:14.968Z,9.93
2023-03-02T22:47:51.692Z,9.88
2023-03-02T22:50:26.225Z,10.43
2023-03-02T22:53:01.408Z,10.90
2023-03-02T22:55:40.878Z,10.45
2023-03-02T22:58:32.608Z,9.43
2023-03-02T23:01:19.272Z,8.68
2023-03-02T23:03:54.504Z,9.95
2023-03-02T23:06:32.332Z,10.02
2023-03-02T23:09:07.715Z,9.35
2023-03-02T23:11:43.029Z,9.32
2023-03-02T23:14:23.166Z,9.88
2023-03-02T23:16:59.871Z,9.55
2023-03-02T23:19:33.378Z,9.00
2023-03-02T23:22:06.140Z,8.57
2023-03-02T23:24:38.835Z,8.80
2023-03-02T23:27:13.303Z,8.68
2023-03-02T23:29:46.146Z,9.88
2023-03-02T23:32:19.796Z,9.75
2023-03-02T23:34:52.901Z,9.35
2023-03-02T23:37:25.727Z,9.27
2023-03-02T23:42:32.787Z,10.30
2023-03-02T23:45:06.475Z,8.82
2023-03-02T23:47:39.192Z,8.73
2023-03-02T23:50:13.047Z,9.23
2023-03-02T23:52:45.753Z,8.75
2023-03-02T23:55:18.999Z,9.57
2023-03-02T23:57:53.273Z,8.93
